Time;durP1;ratioP1;P1;durP2;ratioP2;P2;SDS_P1;SDS_P2;PMS_P1;PMS_P2;Temp;Humidity;BMP_temperature;BMP_pressure;BME280_temperature;BME280_humidity;BME280_pressure;Samples;Min_cycle;Max_cycle;Signal;HPM_P1;HPM_P2
2020/12/16 00:01:07;;;;;;;52.33;27.45;;;;;;;1.43;100.00;100920.88;1739033;81;21153;-48
2020/12/16 00:03:35;;;;;;;49.08;25.25;;;;;;;1.44;100.00;100929.73;1714137;80;21190;-47
2020/12/16 00:09:09;;;;;;;52.10;28.05;;;;;;;1.50;100.00;100932.02;1733457;79;22806;-48
2020/12/16 00:11:37;;;;;;;47.73;25.37;;;;;;;1.46;100.00;100938.19;1716844;82;21026;-48
2020/12/16 00:14:05;;;;;;;40.43;23.83;;;;;;;1.46;100.00;100940.84;1716371;82;22629;-46
2020/12/16 00:16:33;;;;;;;43.80;25.10;;;;;;;1.46;100.00;100938.63;1716430;82;21038;-48
2020/12/16 00:19:01;;;;;;;39.98;23.75;;;;;;;1.46;100.00;100932.87;1717163;82;21026;-46
2020/12/16 00:21:29;;;;;;;39.75;22.45;;;;;;;1.48;100.00;100936.41;1715943;82;21564;-48
2020/12/16 00:23:57;;;;;;;39.08;21.50;;;;;;;1.47;100.00;100937.30;1716544;82;21688;-46
2020/12/16 00:26:25;;;;;;;31.23;19.48;;;;;;;1.46;100.00;100932.87;1717304;82;21492;-47
2020/12/16 00:28:53;;;;;;;34.70;20.82;;;;;;;1.46;100.00;100942.62;1716257;82;21660;-47
2020/12/16 00:31:21;;;;;;;39.40;20.35;;;;;;;1.46;100.00;100938.19;1716898;82;21041;-47
2020/12/16 00:33:49;;;;;;;32.45;19.40;;;;;;;1.46;100.00;100934.20;1714806;82;21581;-47
2020/12/16 00:36:18;;;;;;;41.33;22.37;;;;;;;1.46;100.00;100935.53;1716614;82;20951;-48
2020/12/16 00:38:46;;;;;;;37.93;22.73;;;;;;;1.44;100.00;100934.64;1716198;82;21600;-47
2020/12/16 00:41:14;;;;;;;41.02;21.48;;;;;;;1.43;100.00;100929.30;1716388;82;21002;-47
2020/12/16 00:43:42;;;;;;;44.25;23.40;;;;;;;1.43;100.00;100938.16;1715817;82;21165;-48
2020/12/16 00:46:11;;;;;;;54.05;25.97;;;;;;;1.44;100.00;100931.98;1716791;82;21582;-46
2020/12/16 00:48:39;;;;;;;51.10;26.62;;;;;;;1.45;100.00;100927.11;1685817;82;20963;-48
2020/12/16 00:51:07;;;;;;;55.50;29.15;;;;;;;1.46;100.00;100935.53;1715531;82;21198;-48
2020/12/16 00:53:37;;;;;;;53.10;28.05;;;;;;;1.47;100.00;100928.00;1714834;82;21192;-46
2020/12/16 00:56:05;;;;;;;59.13;28.10;;;;;;;1.46;100.00;100926.67;1686415;82;21636;-45
2020/12/16 00:58:33;;;;;;;55.85;28.23;;;;;;;1.44;100.00;100929.33;1689411;82;21140;-47
2020/12/16 01:01:01;;;;;;;59.93;27.80;;;;;;;1.45;100.00;100919.58;1714011;82;21053;-47
2020/12/16 01:03:30;;;;;;;64.42;31.82;;;;;;;1.45;100.00;100917.80;1715016;82;21210;-45
2020/12/16 01:05:58;;;;;;;59.42;27.67;;;;;;;1.45;100.00;100920.47;1715384;82;21120;-47
2020/12/16 01:08:26;;;;;;;61.10;30.95;;;;;;;1.44;100.00;100913.38;1707419;82;21159;-47
2020/12/16 01:10:55;;;;;;;70.08;33.60;;;;;;;1.45;100.00;100913.82;1702162;82;21548;-45
2020/12/16 01:13:24;;;;;;;60.12;30.95;;;;;;;1.43;100.00;100914.23;1686018;83;20951;-46
2020/12/16 01:15:52;;;;;;;67.22;30.82;;;;;;;1.44;100.00;100916.03;1704054;82;21361;-47
2020/12/16 01:18:20;;;;;;;64.12;31.12;;;;;;;1.45;100.00;100912.49;1703328;82;21583;-47
2020/12/16 01:20:50;;;;;;;79.40;35.33;;;;;;;1.45;100.00;100908.50;1702969;83;21078;-46
2020/12/16 01:23:42;;;;;;;77.82;34.15;;;;;;;1.49;100.00;100908.98;1846623;74;23197;-46
2020/12/16 01:26:10;;;;;;;75.90;34.80;;;;;;;1.43;100.00;100906.26;1799052;77;21604;-46
2020/12/16 01:28:41;;;;;;;71.47;31.90;;;;;;;1.42;100.00;100910.25;1799931;77;22253;-46
2020/12/16 01:31:10;;;;;;;71.25;32.23;;;;;;;1.38;100.00;100908.00;1804577;77;21013;-47
2020/12/16 01:33:39;;;;;;;72.90;33.23;;;;;;;1.39;100.00;100905.81;1787701;77;21124;-49
2020/12/16 01:36:10;;;;;;;71.12;32.95;;;;;;;1.40;100.00;100903.60;1798798;77;21700;-48
2020/12/16 01:38:39;;;;;;;81.67;38.23;;;;;;;1.40;100.00;100898.28;1797621;77;20986;-47
2020/12/16 01:41:07;;;;;;;84.77;37.50;;;;;;;1.39;100.00;100903.16;1808441;77;21399;-46
2020/12/16 01:43:53;;;;;;;76.67;40.27;;;;;;;1.43;100.00;100896.95;1793893;76;27965;-46
2020/12/16 01:46:23;;;;;;;74.60;36.58;;;;;;;1.43;100.00;100902.27;1779160;79;21513;-48
2020/12/16 01:48:51;;;;;;;78.20;35.60;;;;;;;1.44;100.00;100881.48;1781133;79;21693;-46
2020/12/16 01:51:20;;;;;;;85.20;38.13;;;;;;;1.46;100.00;100878.82;1779300;79;21128;-47
2020/12/16 01:53:50;;;;;;;82.97;36.93;;;;;;;1.45;100.00;100887.69;1780551;79;20993;-45
2020/12/16 01:56:18;;;;;;;78.67;35.45;;;;;;;1.45;100.00;100877.94;1750902;80;21000;-47
2020/12/16 01:58:55;;;;;;;92.05;36.85;;;;;;;1.51;100.00;100872.64;1791433;77;22753;-47
2020/12/16 02:01:24;;;;;;;98.35;41.90;;;;;;;1.46;100.00;100874.39;1752013;80;21133;-47
2020/12/16 02:03:54;;;;;;;86.72;39.40;;;;;;;1.44;100.00;100876.16;1714218;80;21380;-47
2020/12/16 02:06:32;;;;;;;87.35;40.15;;;;;;;1.45;100.00;100876.61;1749257;80;21085;-47
2020/12/16 02:09:06;;;;;;;93.27;39.92;;;;;;;1.46;100.00;100879.71;1735209;80;21022;-47
2020/12/16 02:11:36;;;;;;;93.17;40.28;;;;;;;1.46;100.00;100866.42;1718427;80;21485;-46
2020/12/16 02:14:07;;;;;;;92.57;39.78;;;;;;;1.45;100.00;100874.39;1747054;80;21013;-46
2020/12/16 02:16:38;;;;;;;87.62;38.15;;;;;;;1.45;100.00;100880.59;1748664;80;26305;-46
2020/12/16 02:19:06;;;;;;;97.80;40.63;;;;;;;1.45;100.00;100876.61;1748709;80;21493;-45
2020/12/16 02:21:36;;;;;;;98.60;43.60;;;;;;;1.44;100.00;100869.52;1750641;80;21010;-45
2020/12/16 02:24:06;;;;;;;106.85;42.23;;;;;;;1.46;100.00;100869.52;1716250;82;21157;-46
2020/12/16 02:26:40;;;;;;;113.90;45.10;;;;;;;1.46;100.00;100863.76;1699212;83;21121;-46
2020/12/16 02:29:08;;;;;;;105.65;43.35;;;;;;;1.46;100.00;100867.75;1753883;80;21375;-48
2020/12/16 02:31:37;;;;;;;101.25;42.85;;;;;;;1.45;100.00;100874.39;1727409;80;21208;-47
2020/12/16 02:34:10;;;;;;;110.78;44.63;;;;;;;1.44;100.00;100870.85;1749287;80;21160;-46
2020/12/16 02:36:40;;;;;;;97.40;42.65;;;;;;;1.43;100.00;100870.38;1748608;80;21160;-46
2020/12/16 02:39:09;;;;;;;110.08;44.80;;;;;;;1.45;100.00;100865.97;1750960;80;21747;-47
2020/12/16 02:41:44;;;;;;;113.42;44.53;;;;;;;1.44;100.00;100862.88;1746306;80;22246;-47
2020/12/16 02:44:14;;;;;;;112.92;46.98;;;;;;;1.43;100.00;100859.74;1748524;80;21005;-46
2020/12/16 02:46:57;;;;;;;101.27;39.65;;;;;;;1.42;100.00;100859.30;1747361;80;21014;-48
2020/12/16 02:49:35;;;;;;;102.02;44.65;;;;;;;1.48;100.00;100861.98;1783790;76;22836;-47
2020/12/16 02:52:03;;;;;;;99.85;41.13;;;;;;;1.42;100.00;100869.94;1751619;79;20962;-46
2020/12/16 02:54:31;;;;;;;91.02;39.10;;;;;;;1.43;100.00;100871.70;1720444;80;22191;-47
2020/12/16 02:57:12;;;;;;;88.87;37.13;;;;;;;1.48;100.00;100864.64;1859464;74;23206;-46
2020/12/16 02:59:49;;;;;;;97.92;39.50;;;;;;;1.42;100.00;100863.29;1820596;75;20978;-47
2020/12/16 03:02:19;;;;;;;92.50;37.88;;;;;;;1.41;100.00;100866.83;1788686;77;21371;-47
2020/12/16 03:04:58;;;;;;;96.42;39.23;;;;;;;1.48;100.00;100867.30;1781429;78;22662;-46
2020/12/16 03:07:28;;;;;;;98.40;40.60;;;;;;;1.42;100.00;100868.60;1771759;79;21464;-46
2020/12/16 03:09:57;;;;;;;89.90;39.58;;;;;;;1.43;100.00;100874.36;1744560;79;21529;-46
2020/12/16 03:12:27;;;;;;;95.03;38.83;;;;;;;1.43;100.00;100866.39;1773363;79;21625;-47
2020/12/16 03:14:56;;;;;;;92.62;38.70;;;;;;;1.45;100.00;100864.65;1770073;79;20997;-47
2020/12/16 03:17:24;;;;;;;92.82;39.33;;;;;;;1.45;100.00;100867.30;1773116;79;20966;-46
2020/12/16 03:19:54;;;;;;;93.87;39.92;;;;;;;1.48;100.00;100864.64;1772022;79;20963;-46
2020/12/16 03:22:23;;;;;;;86.82;38.42;;;;;;;1.47;100.00;100857.55;1772738;79;22248;-47
2020/12/16 03:25:09;;;;;;;98.35;38.92;;;;;;;1.46;100.00;100861.10;1772149;79;21009;-46
2020/12/16 03:27:56;;;;;;;91.85;38.75;;;;;;;1.46;100.00;100861.10;1772610;79;21006;-46
2020/12/16 03:30:32;;;;;;;91.10;37.05;;;;;;;1.44;100.00;100854.91;1771246;79;21437;-47
2020/12/16 03:33:17;;;;;;;91.28;36.50;;;;;;;1.46;100.00;100866.42;1737017;81;21123;-47
2020/12/16 03:35:47;;;;;;;103.92;41.45;;;;;;;1.47;100.00;100860.22;1710943;82;21208;-46
2020/12/16 03:38:16;;;;;;;95.42;41.20;;;;;;;1.50;100.00;100864.67;1712043;82;21573;-46
2020/12/16 03:40:46;;;;;;;95.38;40.35;;;;;;;1.52;100.00;100863.78;1701700;82;21027;-46
2020/12/16 03:43:14;;;;;;;99.20;40.63;;;;;;;1.52;100.00;100861.13;1737411;81;21560;-47
2020/12/16 03:45:41;;;;;;;92.47;40.48;;;;;;;1.53;100.00;100856.25;1712016;82;20955;-48
2020/12/16 03:48:09;;;;;;;91.20;38.45;;;;;;;1.55;100.00;100858.49;1712166;82;22323;-50
2020/12/16 03:50:37;;;;;;;90.22;39.63;;;;;;;1.56;100.00;100865.58;1705804;82;21017;-47
2020/12/16 03:53:05;;;;;;;85.72;39.98;;;;;;;1.57;100.00;100866.02;1719057;81;21290;-48
2020/12/16 03:55:43;;;;;;;86.70;38.40;;;;;;;1.64;100.00;100870.03;1933571;72;22684;-47
2020/12/16 03:58:31;;;;;;;85.25;38.35;;;;;;;1.56;100.00;100871.34;1889598;74;20949;-47
2020/12/16 04:01:09;;;;;;;86.30;39.35;;;;;;;1.63;100.00;100877.56;1840078;76;22686;-47
2020/12/16 04:03:38;;;;;;;85.72;39.73;;;;;;;1.58;100.00;100874.44;1778998;77;20977;-47
2020/12/16 04:06:19;;;;;;;86.50;39.67;;;;;;;1.66;100.00;100869.61;1816277;76;23446;-48
2020/12/16 04:08:47;;;;;;;84.42;40.85;;;;;;;1.62;100.00;100879.78;1777319;77;21561;-47
2020/12/16 04:11:34;;;;;;;86.20;38.98;;;;;;;1.60;100.00;100873.55;1761166;79;21552;-47
2020/12/16 04:14:04;;;;;;;80.12;36.85;;;;;;;1.58;100.00;100877.09;1763295;79;20989;-47
2020/12/16 04:16:34;;;;;;;79.70;38.00;;;;;;;1.61;100.00;100878.89;1761153;79;21580;-49
2020/12/16 04:19:04;;;;;;;75.85;36.58;;;;;;;1.63;100.00;100882.88;1761272;79;20979;-56
2020/12/16 04:21:33;;;;;;;66.35;33.92;;;;;;;1.64;100.00;100881.99;1760384;79;21540;-52
2020/12/16 04:24:01;;;;;;;62.25;32.25;;;;;;;1.64;100.00;100884.20;1759813;79;21357;-46
2020/12/16 04:26:35;;;;;;;55.12;30.08;;;;;;;1.64;100.00;100888.64;1762919;79;21084;-50
2020/12/16 04:29:07;;;;;;;50.43;26.93;;;;;;;1.62;100.00;100882.44;1759217;79;21085;-48
2020/12/16 04:31:38;;;;;;;45.43;25.23;;;;;;;1.63;100.00;100886.42;1765891;79;21104;-51
2020/12/16 04:34:08;;;;;;;50.48;26.10;;;;;;;1.64;100.00;100888.64;1751721;79;21163;-47
2020/12/16 04:36:36;;;;;;;45.17;25.00;;;;;;;1.63;100.00;100889.53;1765545;79;21375;-47
2020/12/16 04:39:04;;;;;;;46.73;24.67;;;;;;;1.64;100.00;100885.98;1737806;79;21609;-46
2020/12/16 04:41:33;;;;;;;39.85;23.45;;;;;;;1.64;100.00;100888.64;1766344;79;21151;-46
2020/12/16 04:44:02;;;;;;;42.75;24.92;;;;;;;1.63;100.00;100889.53;1766286;79;21533;-48
2020/12/16 04:46:37;;;;;;;45.28;25.70;;;;;;;1.64;100.00;100888.20;1752856;79;21525;-47
2020/12/16 04:49:02;;;;;;;46.20;24.47;;;;;;;1.64;100.00;100893.95;1754636;79;21197;-47
2020/12/16 04:51:34;;;;;;;39.45;22.98;;;;;;;1.63;100.00;100893.52;1768415;79;21187;-47
2020/12/16 04:54:03;;;;;;;37.45;22.02;;;;;;;1.60;100.00;100889.50;1741886;79;21001;-48
2020/12/16 04:56:33;;;;;;;36.77;20.80;;;;;;;1.57;100.00;100896.59;1767173;79;21060;-47
2020/12/16 04:59:05;;;;;;;37.13;20.55;;;;;;;1.56;100.00;100892.17;1767554;79;21560;-47
2020/12/16 05:01:39;;;;;;;;;;;;;;;1.56;100.00;100897.48;1767302;79;22454;-49
2020/12/16 05:04:08;;;;;;;38.28;21.75;;;;;;;1.55;100.00;100914.32;1761338;79;20260;-49
2020/12/16 05:06:44;;;;;;;32.42;20.48;;;;;;;1.54;100.00;100909.86;1749646;79;20992;-48
2020/12/16 05:09:14;;;;;;;35.08;20.70;;;;;;;1.54;100.00;100915.17;1762380;79;21001;-47
2020/12/16 05:11:51;;;;;;;29.40;18.32;;;;;;;1.52;100.00;100908.97;1764681;79;21163;-48
2020/12/16 05:14:23;;;;;;;28.30;18.70;;;;;;;1.52;100.00;100907.64;1762350;79;21378;-51
2020/12/16 05:17:00;;;;;;;31.35;19.17;;;;;;;1.50;100.00;100908.09;1761219;79;21017;-47
2020/12/16 05:19:44;;;;;;;32.25;19.90;;;;;;;1.56;100.00;100900.14;1807358;76;22815;-47
2020/12/16 05:22:31;;;;;;;35.75;21.02;;;;;;;1.51;100.00;100904.55;1762328;78;21001;-47
2020/12/16 05:24:59;;;;;;;31.93;20.08;;;;;;;1.52;100.00;100902.33;1758755;78;21372;-46
2020/12/16 05:27:29;;;;;;;33.65;20.12;;;;;;;1.50;100.00;100897.45;1759960;78;21144;-47
2020/12/16 05:30:06;;;;;;;32.40;20.02;;;;;;;1.49;100.00;100897.02;1762670;78;22123;-47
2020/12/16 05:32:41;;;;;;;30.90;20.25;;;;;;;1.53;100.00;100897.45;1810824;77;22869;-46
2020/12/16 05:35:36;;;;;;;36.15;21.15;;;;;;;1.49;100.00;100902.74;1768596;79;21581;-48
2020/12/16 05:38:08;;;;;;;33.92;21.52;;;;;;;1.47;99.91;100897.42;1767544;79;21377;-46
2020/12/16 05:40:38;;;;;;;32.85;19.95;;;;;;;1.47;99.88;100892.55;1767346;80;21086;-46
2020/12/16 05:43:06;;;;;;;36.63;21.42;;;;;;;1.49;99.76;100890.37;1769296;80;21180;-47
2020/12/16 05:45:39;;;;;;;34.35;21.90;;;;;;;1.47;99.61;100894.77;1767581;80;21010;-55
2020/12/16 05:48:11;;;;;;;36.95;22.35;;;;;;;1.47;99.61;100893.88;1767490;80;21106;-49
2020/12/16 05:50:52;;;;;;;36.05;22.70;;;;;;;1.47;99.58;100893.88;1767868;80;22003;-48
2020/12/16 05:53:25;;;;;;;36.63;22.27;;;;;;;1.47;99.66;100889.45;1767798;79;21049;-47
2020/12/16 05:55:59;;;;;;;38.35;21.52;;;;;;;1.48;99.62;100896.54;1767309;80;21049;-48
2020/12/16 05:58:31;;;;;;;37.45;24.18;;;;;;;1.49;99.43;100898.34;1768386;80;21607;-46
2020/12/16 06:01:06;;;;;;;38.92;23.12;;;;;;;1.48;99.44;100883.25;1766718;80;21125;-47
2020/12/16 06:03:38;;;;;;;46.75;25.23;;;;;;;1.49;99.29;100883.72;1768598;80;21246;-47
2020/12/16 06:06:09;;;;;;;40.85;25.70;;;;;;;1.48;99.17;100879.27;1768661;79;21601;-46
2020/12/16 06:08:39;;;;;;;44.27;24.00;;;;;;;1.47;99.08;100897.42;1770273;80;21306;-47
2020/12/16 06:11:09;;;;;;;41.13;24.32;;;;;;;1.46;98.96;100900.97;1768960;79;21751;-46
2020/12/16 06:13:37;;;;;;;48.13;28.52;;;;;;;1.48;98.95;100903.62;1735550;82;21139;-48
2020/12/16 06:16:06;;;;;;;58.45;32.00;;;;;;;1.47;98.89;100900.53;1735652;82;21390;-47
2020/12/16 06:18:37;;;;;;;57.30;32.13;;;;;;;1.46;98.75;100900.97;1736000;82;21594;-47
2020/12/16 06:21:06;;;;;;;47.30;28.95;;;;;;;1.45;98.55;100901.86;1705370;82;21201;-47
2020/12/16 06:23:39;;;;;;;57.13;32.10;;;;;;;1.45;98.48;100908.95;1731171;81;21658;-47
2020/12/16 06:26:19;;;;;;;55.23;32.08;;;;;;;1.45;98.52;100904.52;1706443;82;21156;-48
2020/12/16 06:28:47;;;;;;;49.80;30.30;;;;;;;1.51;98.53;100912.97;1736823;82;21461;-47
2020/12/16 06:31:27;;;;;;;48.90;30.80;;;;;;;1.56;98.46;100906.79;1724111;82;21168;-48
2020/12/16 06:34:06;;;;;;;48.65;28.57;;;;;;;1.62;98.14;100911.69;1803762;76;23641;-48
2020/12/16 06:36:39;;;;;;;47.10;28.17;;;;;;;1.54;97.87;100914.28;1774961;79;21621;-49
2020/12/16 06:39:18;;;;;;;49.85;27.05;;;;;;;1.53;97.85;100916.06;1803567;77;22124;-48
2020/12/16 06:41:58;;;;;;;48.05;27.73;;;;;;;1.54;97.84;100920.49;1802296;77;20994;-47
2020/12/16 06:44:26;;;;;;;45.35;27.35;;;;;;;1.55;97.73;100922.30;1801974;77;21156;-48
2020/12/16 06:46:55;;;;;;;48.60;30.40;;;;;;;1.58;97.70;100924.95;1802537;79;21050;-47
2020/12/16 06:49:30;;;;;;;49.18;28.70;;;;;;;1.61;97.54;100917.89;1801610;77;20990;-48
2020/12/16 06:52:12;;;;;;;47.90;28.32;;;;;;;1.67;97.13;100924.56;1841413;75;23351;-49
2020/12/16 06:54:53;;;;;;;42.73;27.05;;;;;;;1.62;97.03;100935.62;1788115;78;21258;-58
2020/12/16 06:57:29;;;;;;;36.13;23.92;;;;;;;1.63;96.88;100937.39;1783976;78;21386;-52
2020/12/16 06:59:59;;;;;;;37.23;23.47;;;;;;;1.65;96.71;100937.86;1783369;78;21592;-51
2020/12/16 07:02:33;;;;;;;35.23;22.10;;;;;;;1.65;95.76;100934.28;1784256;78;20997;-51
2020/12/16 07:05:04;;;;;;;30.57;20.88;;;;;;;1.64;95.18;100936.50;1784952;78;21696;-51
2020/12/16 07:07:40;;;;;;;27.90;20.07;;;;;;;1.63;94.59;100936.05;1785334;78;20973;-53
2020/12/16 07:10:39;;;;;;;29.48;18.87;;;;;;;1.64;94.55;100938.72;1784011;78;21632;-56
2020/12/16 07:13:10;;;;;;;30.45;19.92;;;;;;;1.69;94.16;100940.07;1784792;78;21121;-50
2020/12/16 07:16:00;;;;;;;32.40;21.37;;;;;;;1.72;93.48;100940.10;1807348;77;20942;-51
2020/12/16 07:18:45;;;;;;;26.07;18.87;;;;;;;1.70;92.67;100939.19;1784890;78;21624;-57
2020/12/16 07:21:25;;;;;;;26.93;19.67;;;;;;;1.72;91.85;100933.45;1807146;76;22733;-51
2020/12/16 07:24:13;;;;;;;29.57;19.37;;;;;;;1.65;91.61;100932.95;1772311;77;20998;-55
2020/12/16 07:26:50;;;;;;;26.65;19.25;;;;;;;1.66;91.60;100931.66;1750263;79;21379;-51
2020/12/16 07:29:32;;;;;;;31.12;21.30;;;;;;;1.70;91.33;100936.52;1755012;79;21009;-54
2020/12/16 07:32:12;;;;;;;34.25;22.13;;;;;;;1.69;91.21;100929.44;1753458;79;21129;-54
2020/12/16 07:34:49;;;;;;;28.42;19.80;;;;;;;1.69;90.91;100925.45;1750724;79;21362;-52
2020/12/16 07:37:19;;;;;;;30.35;20.50;;;;;;;1.70;90.69;100927.22;1760247;79;21113;-51
2020/12/16 07:39:50;;;;;;;27.65;18.73;;;;;;;1.71;90.30;100925.03;1762088;79;21195;-50
2020/12/16 07:42:29;;;;;;;26.87;20.52;;;;;;;1.72;89.99;100918.83;1758880;79;21624;-49
2020/12/16 07:45:00;;;;;;;28.73;20.08;;;;;;;1.72;89.72;100921.48;1760547;79;21009;-50
2020/12/16 07:47:28;;;;;;;29.87;22.05;;;;;;;1.74;89.35;100933.01;1755888;79;20962;-50
2020/12/16 07:49:56;;;;;;;29.65;20.30;;;;;;;1.71;89.08;100939.66;1754490;79;21353;-49
2020/12/16 07:52:27;;;;;;;29.27;19.73;;;;;;;1.71;88.87;100933.02;1758507;79;21459;-53
2020/12/16 07:55:02;;;;;;;28.40;21.02;;;;;;;1.77;88.22;100930.38;1810453;76;22765;-49
2020/12/16 07:57:33;;;;;;;30.48;22.30;;;;;;;1.69;88.14;100940.07;1781450;78;20977;-50
2020/12/16 08:00:01;;;;;;;27.75;20.70;;;;;;;1.69;88.19;100942.73;1779822;78;21364;-49
2020/12/16 08:02:31;;;;;;;27.40;19.30;;;;;;;1.69;87.92;100941.41;1778571;79;20974;-50
2020/12/16 08:05:03;;;;;;;31.37;21.20;;;;;;;1.69;87.80;100948.05;1778910;79;21005;-51
2020/12/16 08:07:32;;;;;;;29.32;21.57;;;;;;;1.70;87.78;100948.48;1781845;79;21546;-50
2020/12/16 08:10:06;;;;;;;30.02;21.97;;;;;;;1.69;87.52;100942.73;1775432;78;21135;-50
2020/12/16 08:12:43;;;;;;;28.05;21.37;;;;;;;1.69;87.65;100942.73;1776704;78;22359;-48
2020/12/16 08:15:17;;;;;;;30.30;22.45;;;;;;;1.69;87.58;100942.73;1745067;80;20965;-49
2020/12/16 08:17:47;;;;;;;32.50;22.05;;;;;;;1.69;87.34;100937.41;1728654;81;21044;-52
2020/12/16 08:20:25;;;;;;;23.27;18.73;;;;;;;1.69;87.30;100938.74;1778026;79;21185;-51
2020/12/16 08:22:58;;;;;;;33.75;20.45;;;;;;;1.69;87.11;100937.41;1777694;79;20982;-51
2020/12/16 08:25:26;;;;;;;30.20;20.08;;;;;;;1.70;86.67;100936.52;1779073;79;21373;-50
2020/12/16 08:27:56;;;;;;;30.62;22.85;;;;;;;1.72;86.66;100940.10;1779140;80;21124;-51
2020/12/16 08:30:27;;;;;;;29.30;22.83;;;;;;;1.75;86.70;100942.76;1776721;79;21040;-51
2020/12/16 08:33:01;;;;;;;35.10;22.20;;;;;;;1.76;86.82;100943.23;1777856;79;21151;-50
2020/12/16 08:35:40;;;;;;;36.63;23.47;;;;;;;1.77;86.93;100940.56;1715886;81;21534;-50
2020/12/16 08:38:26;;;;;;;33.53;28.05;;;;;;;1.87;86.94;100933.97;1796162;76;28627;-55
2020/12/16 08:40:55;;;;;;;36.77;26.73;;;;;;;1.86;86.96;100941.03;1760323;79;21529;-49
2020/12/16 08:43:29;;;;;;;34.08;25.12;;;;;;;1.89;86.98;100930.42;1762981;79;21206;-50
2020/12/16 08:46:09;;;;;;;35.78;23.38;;;;;;;1.91;86.60;100936.62;1762804;78;21888;-53
2020/12/16 08:49:00;;;;;;;31.40;23.47;;;;;;;1.91;86.68;100935.73;1763838;79;21537;-53
2020/12/16 08:51:43;;;;;;;36.42;27.30;;;;;;;1.95;86.78;100933.09;1761661;79;20993;-51
2020/12/16 08:54:17;;;;;;;40.17;25.75;;;;;;;1.96;86.63;100921.56;1761423;79;20986;-61
2020/12/16 08:56:53;;;;;;;33.13;24.45;;;;;;;1.99;86.49;100920.27;1761069;79;21425;-57
2020/12/16 08:59:26;;;;;;;37.40;24.35;;;;;;;2.01;86.33;100919.81;1764229;79;21009;-65
2020/12/16 09:02:06;;;;;;;34.63;24.45;;;;;;;2.03;86.28;100916.73;1761345;79;21013;-60
2020/12/16 09:04:39;;;;;;;41.30;28.80;;;;;;;2.06;86.03;100923.38;1763736;79;21102;-60
2020/12/16 09:07:15;;;;;;;42.78;29.55;;;;;;;2.05;85.84;100924.27;1761751;79;20923;-50
2020/12/16 09:09:51;;;;;;;42.33;29.00;;;;;;;2.04;85.82;100917.17;1762473;79;21371;-62
2020/12/16 09:12:21;;;;;;;43.00;27.48;;;;;;;2.04;85.89;100917.17;1763776;79;21049;-57
2020/12/16 09:14:55;;;;;;;45.40;29.00;;;;;;;2.03;85.87;100916.73;1763664;79;21543;-53
2020/12/16 09:17:31;;;;;;;41.77;25.57;;;;;;;2.12;85.93;100916.30;1808938;76;22840;-56
2020/12/16 09:19:59;;;;;;;34.85;24.60;;;;;;;2.09;85.77;100922.07;1754667;77;20933;-56
2020/12/16 09:22:29;;;;;;;33.85;25.10;;;;;;;2.07;85.57;100915.84;1752393;79;21196;-58
2020/12/16 09:24:59;;;;;;;31.12;22.70;;;;;;;2.07;85.62;100922.48;1751357;79;20997;-60
2020/12/16 09:27:27;;;;;;;31.95;23.73;;;;;;;2.09;85.63;100917.19;1751584;79;21580;-63
2020/12/16 09:29:55;;;;;;;33.33;24.37;;;;;;;2.09;85.57;100922.07;1750127;79;21001;-55
2020/12/16 09:32:26;;;;;;;35.40;24.82;;;;;;;2.07;85.62;100926.92;1749703;80;21004;-67
2020/12/16 09:34:54;;;;;;;35.50;25.90;;;;;;;2.08;85.77;100927.40;1751152;79;21207;-65
2020/12/16 09:37:32;;;;;;;33.48;24.52;;;;;;;2.07;85.66;100926.48;1751266;79;20997;-56
2020/12/16 09:40:10;;;;;;;31.62;23.38;;;;;;;2.05;85.70;100924.27;1750626;80;20998;-62
2020/12/16 09:45:38;;;;;;;36.65;24.47;;;;;;;2.09;85.87;100913.20;1858079;75;22685;-59
2020/12/16 09:48:07;;;;;;;34.63;22.73;;;;;;;2.01;85.93;100906.52;1783259;78;21152;-58
2020/12/16 09:50:36;;;;;;;27.55;20.23;;;;;;;1.99;86.01;100905.63;1759317;79;22289;-59
2020/12/16 09:53:10;;;;;;;32.93;20.27;;;;;;;1.96;86.08;100908.27;1781486;79;21010;-57
2020/12/16 09:55:42;;;;;;;33.05;22.13;;;;;;;1.94;86.26;100898.07;1782859;79;20987;-56
2020/12/16 09:58:13;;;;;;;38.73;23.05;;;;;;;1.95;86.58;100895.86;1782412;79;21001;-56
2020/12/16 10:00:41;;;;;;;32.53;21.60;;;;;;;1.95;86.77;100898.52;1782132;79;21017;-60
2020/12/16 10:03:12;;;;;;;32.83;21.55;;;;;;;1.97;86.91;100898.09;1782975;79;21243;-60
2020/12/16 10:05:40;;;;;;;26.12;19.10;;;;;;;1.97;87.02;100888.79;1782926;79;21029;-58
2020/12/16 10:08:15;;;;;;;30.37;20.40;;;;;;;1.96;86.98;100881.66;1782595;79;21351;-57
2020/12/16 10:10:42;;;;;;;29.12;20.05;;;;;;;1.93;87.08;100884.33;1781969;79;21108;-64
2020/12/16 10:13:11;;;;;;;29.98;20.60;;;;;;;1.92;87.23;100885.63;1782872;79;20966;-56
2020/12/16 10:15:39;;;;;;;32.00;21.55;;;;;;;1.92;87.39;100882.56;1782140;79;21367;-55
2020/12/16 10:18:06;;;;;;;30.32;20.85;;;;;;;1.92;87.40;100877.24;1782700;79;21111;-57
2020/12/16 10:20:34;;;;;;;31.20;21.60;;;;;;;1.91;87.34;100874.11;1782894;79;20994;-56
2020/12/16 10:23:02;;;;;;;34.27;21.10;;;;;;;1.89;87.39;100878.99;1782629;79;21262;-53
2020/12/16 10:25:31;;;;;;;29.80;19.52;;;;;;;1.87;87.48;100879.00;1783058;79;21518;-57
2020/12/16 10:27:59;;;;;;;30.65;21.93;;;;;;;1.86;87.61;100871.88;1782214;79;21474;-62
2020/12/16 10:30:27;;;;;;;34.23;21.80;;;;;;;1.87;87.77;100873.68;1783124;79;21134;-54
2020/12/16 10:32:56;;;;;;;32.05;21.85;;;;;;;1.87;87.88;100871.02;1781660;79;21153;-60
2020/12/16 10:35:24;;;;;;;32.80;20.77;;;;;;;1.85;87.91;100864.78;1782217;79;21574;-56
2020/12/16 10:37:52;;;;;;;34.13;21.75;;;;;;;1.84;88.06;100868.34;1781257;79;21128;-57
2020/12/16 10:40:20;;;;;;;29.67;20.88;;;;;;;1.84;88.26;100862.57;1783198;79;21578;-55
2020/12/16 10:42:48;;;;;;;34.43;23.10;;;;;;;1.88;88.32;100866.14;1782622;79;21144;-57
2020/12/16 10:45:16;;;;;;;31.87;22.27;;;;;;;1.89;88.37;100863.92;1782057;79;21088;-60
2020/12/16 10:47:44;;;;;;;32.03;21.50;;;;;;;1.86;88.34;100862.56;1782140;79;21369;-58
2020/12/16 10:50:12;;;;;;;33.95;21.57;;;;;;;1.87;88.42;100867.03;1782410;79;21005;-57
2020/12/16 10:52:39;;;;;;;30.43;20.30;;;;;;;1.84;88.50;100861.24;1781313;79;21379;-53
2020/12/16 10:55:07;;;;;;;32.50;21.42;;;;;;;1.83;88.64;100863.91;1781922;79;21132;-61
2020/12/16 10:57:35;;;;;;;35.08;23.85;;;;;;;1.84;88.67;100861.69;1781363;79;20974;-55
2020/12/16 11:00:04;;;;;;;34.48;23.25;;;;;;;1.85;88.88;100854.14;1779701;79;21025;-56
2020/12/16 11:02:31;;;;;;;33.00;21.12;;;;;;;1.84;88.98;100855.03;1781493;79;21017;-52
2020/12/16 11:04:59;;;;;;;37.88;22.50;;;;;;;1.83;89.09;100855.92;1779716;79;22225;-55
2020/12/16 11:07:27;;;;;;;33.70;21.45;;;;;;;1.81;89.15;100852.35;1780685;79;21410;-56
2020/12/16 11:09:55;;;;;;;40.03;23.32;;;;;;;1.83;89.23;100853.27;1779867;79;21144;-59
2020/12/16 11:12:22;;;;;;;39.15;24.35;;;;;;;1.79;89.15;100854.13;1781835;79;21005;-54
2020/12/16 11:14:50;;;;;;;36.25;23.50;;;;;;;1.78;89.19;100855.02;1781579;79;20962;-56
2020/12/16 11:17:18;;;;;;;33.48;22.25;;;;;;;1.78;89.15;100852.36;1780359;79;22099;-60
2020/12/16 11:19:46;;;;;;;34.13;21.25;;;;;;;1.76;89.23;100849.70;1781726;79;20990;-63
2020/12/16 11:22:13;;;;;;;33.48;23.27;;;;;;;1.76;89.38;100848.83;1781811;79;21071;-57
2020/12/16 11:24:41;;;;;;;35.03;22.87;;;;;;;1.76;89.51;100848.38;1781741;79;21041;-58
2020/12/16 11:27:09;;;;;;;34.53;23.20;;;;;;;1.77;89.75;100850.15;1782306;79;21104;-56
2020/12/16 11:29:36;;;;;;;32.83;22.30;;;;;;;1.80;89.85;100854.58;1779262;79;21418;-52
2020/12/16 11:32:04;;;;;;;35.28;23.18;;;;;;;1.80;89.96;100847.92;1781142;79;21049;-53
2020/12/16 11:34:33;;;;;;;30.23;21.17;;;;;;;1.79;89.82;100835.07;1781853;79;21538;-58
2020/12/16 11:37:01;;;;;;;25.57;17.98;;;;;;;1.75;89.38;100835.05;1780825;79;21145;-57
2020/12/16 11:39:29;;;;;;;26.23;17.20;;;;;;;1.70;89.01;100838.14;1781579;79;21116;-58
2020/12/16 11:41:57;;;;;;;24.77;17.10;;;;;;;1.65;88.87;100832.84;1779390;79;21569;-56